sensor_id;sensor_type;location;lat;lon;timestamp;temperature;humidity
23188;DHT22;11762;59.878;17.686;2023-07-30T00:00:34;15.90;99.90
23188;DHT22;11762;59.878;17.686;2023-07-30T00:03:01;15.90;99.90
23188;DHT22;11762;59.878;17.686;2023-07-30T00:05:28;15.80;99.90
23188;DHT22;11762;59.878;17.686;2023-07-30T00:07:55;15.40;99.90
23188;DHT22;11762;59.878;17.686;2023-07-30T00:10:22;15.10;99.90
23188;DHT22;11762;59.878;17.686;2023-07-30T00:12:49;14.80;99.90
23188;DHT22;11762;59.878;17.686;2023-07-30T00:15:18;14.70;99.90
23188;DHT22;11762;59.878;17.686;2023-07-30T00:17:45;14.60;99.90
23188;DHT22;11762;59.878;17.686;2023-07-30T00:20:12;14.70;99.90
23188;DHT22;11762;59.878;17.686;2023-07-30T00:22:39;14.60;99.90
23188;DHT22;11762;59.878;17.686;2023-07-30T00:25:06;14.50;99.90
23188;DHT22;11762;59.878;17.686;2023-07-30T00:27:34;14.20;99.90
23188;DHT22;11762;59.878;17.686;2023-07-30T00:30:01;14.00;99.90
23188;DHT22;11762;59.878;17.686;2023-07-30T00:32:29;13.90;99.90
23188;DHT22;11762;59.878;17.686;2023-07-30T00:34:56;13.80;99.90
23188;DHT22;11762;59.878;17.686;2023-07-30T00:37:23;13.80;99.90
23188;DHT22;11762;59.878;17.686;2023-07-30T00:39:50;13.90;99.90
23188;DHT22;11762;59.878;17.686;2023-07-30T00:42:17;13.90;99.90
23188;DHT22;11762;59.878;17.686;2023-07-30T00:44:44;13.90;99.90
23188;DHT22;11762;59.878;17.686;2023-07-30T00:47:11;13.90;99.90
23188;DHT22;11762;59.878;17.686;2023-07-30T00:49:40;13.90;99.90
23188;DHT22;11762;59.878;17.686;2023-07-30T00:52:07;14.00;99.90
23188;DHT22;11762;59.878;17.686;2023-07-30T00:54:35;13.90;99.90
23188;DHT22;11762;59.878;17.686;2023-07-30T00:57:02;13.90;99.90
23188;DHT22;11762;59.878;17.686;2023-07-30T00:59:29;14.00;99.90
23188;DHT22;11762;59.878;17.686;2023-07-30T01:01:57;14.00;99.90
23188;DHT22;11762;59.878;17.686;2023-07-30T01:04:25;14.10;99.90
23188;DHT22;11762;59.878;17.686;2023-07-30T01:06:54;14.10;99.90
23188;DHT22;11762;59.878;17.686;2023-07-30T01:09:21;14.10;99.90
23188;DHT22;11762;59.878;17.686;2023-07-30T01:11:48;14.10;99.90
23188;DHT22;11762;59.878;17.686;2023-07-30T01:14:16;14.10;99.90
23188;DHT22;11762;59.878;17.686;2023-07-30T01:16:44;14.10;99.90
23188;DHT22;11762;59.878;17.686;2023-07-30T01:19:11;14.10;99.90
23188;DHT22;11762;59.878;17.686;2023-07-30T01:21:40;14.20;99.90
23188;DHT22;11762;59.878;17.686;2023-07-30T01:24:07;14.20;99.90
23188;DHT22;11762;59.878;17.686;2023-07-30T01:26:38;14.10;99.90
23188;DHT22;11762;59.878;17.686;2023-07-30T01:29:11;14.10;99.90
23188;DHT22;11762;59.878;17.686;2023-07-30T01:31:40;14.10;99.90
23188;DHT22;11762;59.878;17.686;2023-07-30T01:34:10;14.10;99.90
23188;DHT22;11762;59.878;17.686;2023-07-30T01:36:40;14.00;99.90
23188;DHT22;11762;59.878;17.686;2023-07-30T01:39:09;14.00;99.90
23188;DHT22;11762;59.878;17.686;2023-07-30T01:41:37;14.00;99.90
23188;DHT22;11762;59.878;17.686;2023-07-30T01:44:04;13.90;99.90
23188;DHT22;11762;59.878;17.686;2023-07-30T01:46:31;13.90;99.90
23188;DHT22;11762;59.878;17.686;2023-07-30T01:48:58;13.80;99.90
23188;DHT22;11762;59.878;17.686;2023-07-30T01:51:25;13.80;99.90
23188;DHT22;11762;59.878;17.686;2023-07-30T01:53:53;13.80;99.90
23188;DHT22;11762;59.878;17.686;2023-07-30T01:56:21;13.80;99.90
23188;DHT22;11762;59.878;17.686;2023-07-30T01:58:48;13.80;99.90
23188;DHT22;11762;59.878;17.686;2023-07-30T02:01:15;13.80;99.90
23188;DHT22;11762;59.878;17.686;2023-07-30T02:03:42;13.80;99.90
23188;DHT22;11762;59.878;17.686;2023-07-30T02:06:09;13.90;99.90
23188;DHT22;11762;59.878;17.686;2023-07-30T02:08:37;13.90;99.90
23188;DHT22;11762;59.878;17.686;2023-07-30T02:11:06;13.80;99.90
23188;DHT22;11762;59.878;17.686;2023-07-30T02:13:33;13.80;99.90
23188;DHT22;11762;59.878;17.686;2023-07-30T02:16:00;13.80;99.90
23188;DHT22;11762;59.878;17.686;2023-07-30T02:18:27;13.80;99.90
23188;DHT22;11762;59.878;17.686;2023-07-30T02:20:54;13.70;99.90
23188;DHT22;11762;59.878;17.686;2023-07-30T02:23:21;13.70;99.90
23188;DHT22;11762;59.878;17.686;2023-07-30T02:25:48;13.70;99.90
23188;DHT22;11762;59.878;17.686;2023-07-30T02:28:16;13.80;99.90
23188;DHT22;11762;59.878;17.686;2023-07-30T02:30:43;13.70;99.90
23188;DHT22;11762;59.878;17.686;2023-07-30T02:33:10;13.50;99.90
23188;DHT22;11762;59.878;17.686;2023-07-30T02:35:37;13.20;99.90
23188;DHT22;11762;59.878;17.686;2023-07-30T02:38:04;13.10;99.90
23188;DHT22;11762;59.878;17.686;2023-07-30T02:40:31;13.20;99.90
23188;DHT22;11762;59.878;17.686;2023-07-30T02:42:59;13.30;99.90
23188;DHT22;11762;59.878;17.686;2023-07-30T02:45:27;13.40;99.90
23188;DHT22;11762;59.878;17.686;2023-07-30T02:47:54;13.50;99.90
23188;DHT22;11762;59.878;17.686;2023-07-30T02:50:21;13.60;99.90
23188;DHT22;11762;59.878;17.686;2023-07-30T02:52:48;13.70;99.90
23188;DHT22;11762;59.878;17.686;2023-07-30T02:55:15;13.90;99.90
23188;DHT22;11762;59.878;17.686;2023-07-30T02:57:43;14.00;99.90
23188;DHT22;11762;59.878;17.686;2023-07-30T03:00:10;14.10;99.90
23188;DHT22;11762;59.878;17.686;2023-07-30T03:02:39;14.10;99.90
23188;DHT22;11762;59.878;17.686;2023-07-30T03:05:07;14.10;99.90
23188;DHT22;11762;59.878;17.686;2023-07-30T03:07:34;14.20;99.90
23188;DHT22;11762;59.878;17.686;2023-07-30T03:10:01;14.30;99.90
23188;DHT22;11762;59.878;17.686;2023-07-30T03:12:29;14.20;99.90
23188;DHT22;11762;59.878;17.686;2023-07-30T03:14:56;14.30;99.90
23188;DHT22;11762;59.878;17.686;2023-07-30T03:17:23;14.40;99.90
23188;DHT22;11762;59.878;17.686;2023-07-30T03:19:52;14.50;99.90
23188;DHT22;11762;59.878;17.686;2023-07-30T03:22:19;14.40;99.90
23188;DHT22;11762;59.878;17.686;2023-07-30T03:24:46;14.20;99.90
23188;DHT22;11762;59.878;17.686;2023-07-30T03:27:13;13.70;99.90
23188;DHT22;11762;59.878;17.686;2023-07-30T03:29:40;13.40;99.90
23188;DHT22;11762;59.878;17.686;2023-07-30T03:32:07;13.30;99.90
23188;DHT22;11762;59.878;17.686;2023-07-30T03:34:35;13.20;99.90
23188;DHT22;11762;59.878;17.686;2023-07-30T03:37:03;13.30;99.90
23188;DHT22;11762;59.878;17.686;2023-07-30T03:39:30;13.30;99.90
23188;DHT22;11762;59.878;17.686;2023-07-30T03:41:57;13.30;99.90
23188;DHT22;11762;59.878;17.686;2023-07-30T03:44:24;13.30;99.90
23188;DHT22;11762;59.878;17.686;2023-07-30T03:46:51;13.30;99.90
23188;DHT22;11762;59.878;17.686;2023-07-30T03:49:21;13.30;99.90
23188;DHT22;11762;59.878;17.686;2023-07-30T03:51:48;13.40;99.90
23188;DHT22;11762;59.878;17.686;2023-07-30T03:54:17;13.40;99.90
23188;DHT22;11762;59.878;17.686;2023-07-30T03:56:44;13.40;99.90
23188;DHT22;11762;59.878;17.686;2023-07-30T03:59:11;13.40;99.90
23188;DHT22;11762;59.878;17.686;2023-07-30T04:01:38;13.40;99.90
23188;DHT22;11762;59.878;17.686;2023-07-30T04:04:05;13.30;99.90
23188;DHT22;11762;59.878;17.686;2023-07-30T04:06:32;13.30;99.90
23188;DHT22;11762;59.878;17.686;2023-07-30T04:08:59;13.30;99.90
23188;DHT22;11762;59.878;17.686;2023-07-30T04:11:27;13.40;99.90
23188;DHT22;11762;59.878;17.686;2023-07-30T04:13:54;13.40;99.90
23188;DHT22;11762;59.878;17.686;2023-07-30T04:16:21;13.50;99.90
23188;DHT22;11762;59.878;17.686;2023-07-30T04:18:48;13.50;99.90
23188;DHT22;11762;59.878;17.686;2023-07-30T04:21:15;13.70;99.90
23188;DHT22;11762;59.878;17.686;2023-07-30T04:23:42;13.70;99.90
23188;DHT22;11762;59.878;17.686;2023-07-30T04:26:09;13.90;99.90
23188;DHT22;11762;59.878;17.686;2023-07-30T04:28:38;13.90;99.90
23188;DHT22;11762;59.878;17.686;2023-07-30T04:31:05;14.10;99.90
23188;DHT22;11762;59.878;17.686;2023-07-30T04:33:32;14.10;99.90
23188;DHT22;11762;59.878;17.686;2023-07-30T04:35:59;14.20;99.90
23188;DHT22;11762;59.878;17.686;2023-07-30T04:38:26;14.20;99.90
23188;DHT22;11762;59.878;17.686;2023-07-30T04:40:53;14.20;99.90
23188;DHT22;11762;59.878;17.686;2023-07-30T04:43:20;14.20;99.90
23188;DHT22;11762;59.878;17.686;2023-07-30T04:45:48;14.20;99.90
23188;DHT22;11762;59.878;17.686;2023-07-30T04:48:15;14.30;99.90
23188;DHT22;11762;59.878;17.686;2023-07-30T04:50:42;14.40;99.90
23188;DHT22;11762;59.878;17.686;2023-07-30T04:53:09;14.50;99.90
23188;DHT22;11762;59.878;17.686;2023-07-30T04:55:36;14.60;99.90
23188;DHT22;11762;59.878;17.686;2023-07-30T04:58:03;14.70;99.90
23188;DHT22;11762;59.878;17.686;2023-07-30T05:00:30;14.80;99.90
23188;DHT22;11762;59.878;17.686;2023-07-30T05:02:59;14.80;99.90
23188;DHT22;11762;59.878;17.686;2023-07-30T05:05:26;14.90;99.90
23188;DHT22;11762;59.878;17.686;2023-07-30T05:07:52;15.00;99.90
23188;DHT22;11762;59.878;17.686;2023-07-30T05:10:20;15.00;99.90
23188;DHT22;11762;59.878;17.686;2023-07-30T05:12:47;15.10;99.90
23188;DHT22;11762;59.878;17.686;2023-07-30T05:15:14;15.10;99.90
23188;DHT22;11762;59.878;17.686;2023-07-30T05:17:41;15.20;99.90
23188;DHT22;11762;59.878;17.686;2023-07-30T05:20:11;15.20;99.90
23188;DHT22;11762;59.878;17.686;2023-07-30T05:22:38;15.10;99.90
23188;DHT22;11762;59.878;17.686;2023-07-30T05:25:05;15.00;99.90
23188;DHT22;11762;59.878;17.686;2023-07-30T05:27:32;15.00;99.90
23188;DHT22;11762;59.878;17.686;2023-07-30T05:29:59;15.10;99.90
23188;DHT22;11762;59.878;17.686;2023-07-30T05:32:26;15.20;99.90
23188;DHT22;11762;59.878;17.686;2023-07-30T05:34:54;15.30;99.90
23188;DHT22;11762;59.878;17.686;2023-07-30T05:37:22;15.30;99.90
23188;DHT22;11762;59.878;17.686;2023-07-30T05:39:49;15.40;99.90
23188;DHT22;11762;59.878;17.686;2023-07-30T05:42:16;15.50;99.90
23188;DHT22;11762;59.878;17.686;2023-07-30T05:44:43;15.70;99.90
23188;DHT22;11762;59.878;17.686;2023-07-30T05:47:10;15.80;99.90
23188;DHT22;11762;59.878;17.686;2023-07-30T05:49:37;16.00;99.90
23188;DHT22;11762;59.878;17.686;2023-07-30T05:52:05;16.10;99.90
23188;DHT22;11762;59.878;17.686;2023-07-30T05:54:34;16.30;99.90
23188;DHT22;11762;59.878;17.686;2023-07-30T05:57:01;16.40;99.90
23188;DHT22;11762;59.878;17.686;2023-07-30T05:59:27;16.40;99.90
23188;DHT22;11762;59.878;17.686;2023-07-30T06:01:56;16.50;99.90
23188;DHT22;11762;59.878;17.686;2023-07-30T06:04:24;16.60;99.90
23188;DHT22;11762;59.878;17.686;2023-07-30T06:06:51;16.60;99.90
23188;DHT22;11762;59.878;17.686;2023-07-30T06:09:18;16.60;99.90
23188;DHT22;11762;59.878;17.686;2023-07-30T06:11:46;16.70;99.90
23188;DHT22;11762;59.878;17.686;2023-07-30T06:14:13;16.70;99.90
23188;DHT22;11762;59.878;17.686;2023-07-30T06:16:40;16.70;99.90
23188;DHT22;11762;59.878;17.686;2023-07-30T06:19:08;16.80;99.90
23188;DHT22;11762;59.878;17.686;2023-07-30T06:21:35;16.80;99.90
23188;DHT22;11762;59.878;17.686;2023-07-30T06:24:02;16.90;99.90
23188;DHT22;11762;59.878;17.686;2023-07-30T06:26:29;17.00;99.90
23188;DHT22;11762;59.878;17.686;2023-07-30T06:28:58;17.00;99.90
23188;DHT22;11762;59.878;17.686;2023-07-30T06:31:25;17.00;99.90
23188;DHT22;11762;59.878;17.686;2023-07-30T06:33:52;17.00;99.90
23188;DHT22;11762;59.878;17.686;2023-07-30T06:36:19;17.00;99.90
23188;DHT22;11762;59.878;17.686;2023-07-30T06:38:46;16.90;99.90
23188;DHT22;11762;59.878;17.686;2023-07-30T06:41:13;17.00;99.90
23188;DHT22;11762;59.878;17.686;2023-07-30T06:43:41;17.20;99.90
23188;DHT22;11762;59.878;17.686;2023-07-30T06:46:10;17.10;99.90
23188;DHT22;11762;59.878;17.686;2023-07-30T06:48:37;17.20;99.90
23188;DHT22;11762;59.878;17.686;2023-07-30T06:51:06;17.30;99.90
23188;DHT22;11762;59.878;17.686;2023-07-30T06:53:33;17.20;99.90
23188;DHT22;11762;59.878;17.686;2023-07-30T06:56:00;17.10;99.90
23188;DHT22;11762;59.878;17.686;2023-07-30T06:58:27;17.10;99.90
23188;DHT22;11762;59.878;17.686;2023-07-30T07:00:54;17.10;99.90
23188;DHT22;11762;59.878;17.686;2023-07-30T07:03:22;17.10;99.90
23188;DHT22;11762;59.878;17.686;2023-07-30T07:05:53;17.30;99.90
23188;DHT22;11762;59.878;17.686;2023-07-30T07:08:20;17.50;99.90
23188;DHT22;11762;59.878;17.686;2023-07-30T07:10:47;17.70;99.90
23188;DHT22;11762;59.878;17.686;2023-07-30T07:13:14;18.10;99.90
23188;DHT22;11762;59.878;17.686;2023-07-30T07:15:42;18.50;99.90
23188;DHT22;11762;59.878;17.686;2023-07-30T07:18:09;18.70;99.90
23188;DHT22;11762;59.878;17.686;2023-07-30T07:20:38;18.70;99.90
23188;DHT22;11762;59.878;17.686;2023-07-30T07:23:05;18.70;99.90
23188;DHT22;11762;59.878;17.686;2023-07-30T07:25:32;18.50;99.90
23188;DHT22;11762;59.878;17.686;2023-07-30T07:27:59;18.30;99.90
23188;DHT22;11762;59.878;17.686;2023-07-30T07:30:26;18.10;99.90
23188;DHT22;11762;59.878;17.686;2023-07-30T07:32:53;18.00;99.90
23188;DHT22;11762;59.878;17.686;2023-07-30T07:35:21;18.00;99.90
23188;DHT22;11762;59.878;17.686;2023-07-30T07:37:49;18.10;99.90
23188;DHT22;11762;59.878;17.686;2023-07-30T07:40:17;18.10;99.90
23188;DHT22;11762;59.878;17.686;2023-07-30T07:42:44;18.10;99.90
23188;DHT22;11762;59.878;17.686;2023-07-30T07:45:11;18.10;99.90
23188;DHT22;11762;59.878;17.686;2023-07-30T07:47:39;18.20;99.90
23188;DHT22;11762;59.878;17.686;2023-07-30T07:50:07;18.20;99.90
23188;DHT22;11762;59.878;17.686;2023-07-30T07:52:34;18.30;99.90
23188;DHT22;11762;59.878;17.686;2023-07-30T07:55:03;18.40;99.90
23188;DHT22;11762;59.878;17.686;2023-07-30T07:57:30;18.40;99.90
23188;DHT22;11762;59.878;17.686;2023-07-30T07:59:57;18.40;99.90
23188;DHT22;11762;59.878;17.686;2023-07-30T08:02:24;18.60;99.90
23188;DHT22;11762;59.878;17.686;2023-07-30T08:04:52;18.50;99.90
23188;DHT22;11762;59.878;17.686;2023-07-30T08:07:19;18.60;99.90
23188;DHT22;11762;59.878;17.686;2023-07-30T08:09:46;18.70;99.90
23188;DHT22;11762;59.878;17.686;2023-07-30T08:12:14;18.80;99.90
23188;DHT22;11762;59.878;17.686;2023-07-30T08:14:41;18.80;99.90
23188;DHT22;11762;59.878;17.686;2023-07-30T08:17:08;19.00;99.90
23188;DHT22;11762;59.878;17.686;2023-07-30T08:19:35;19.10;99.90
23188;DHT22;11762;59.878;17.686;2023-07-30T08:22:03;19.10;99.90
23188;DHT22;11762;59.878;17.686;2023-07-30T08:24:30;19.20;99.90
23188;DHT22;11762;59.878;17.686;2023-07-30T08:26:57;19.30;99.90
23188;DHT22;11762;59.878;17.686;2023-07-30T08:29:26;19.60;99.90
23188;DHT22;11762;59.878;17.686;2023-07-30T08:31:53;19.90;99.90
23188;DHT22;11762;59.878;17.686;2023-07-30T08:34:21;20.10;99.90
23188;DHT22;11762;59.878;17.686;2023-07-30T08:36:49;20.10;99.90
23188;DHT22;11762;59.878;17.686;2023-07-30T08:39:17;20.10;99.90
23188;DHT22;11762;59.878;17.686;2023-07-30T08:41:44;20.10;99.90
23188;DHT22;11762;59.878;17.686;2023-07-30T08:44:12;20.30;99.90
23188;DHT22;11762;59.878;17.686;2023-07-30T08:46:41;20.60;99.90
23188;DHT22;11762;59.878;17.686;2023-07-30T08:49:08;20.90;99.90
23188;DHT22;11762;59.878;17.686;2023-07-30T08:51:36;21.10;99.90
23188;DHT22;11762;59.878;17.686;2023-07-30T08:54:04;21.30;99.90
23188;DHT22;11762;59.878;17.686;2023-07-30T08:56:32;21.60;99.90
23188;DHT22;11762;59.878;17.686;2023-07-30T08:59:00;21.50;99.90
23188;DHT22;11762;59.878;17.686;2023-07-30T09:01:30;21.60;99.90
23188;DHT22;11762;59.878;17.686;2023-07-30T09:04:03;21.80;99.90
23188;DHT22;11762;59.878;17.686;2023-07-30T09:06:31;22.00;99.90
23188;DHT22;11762;59.878;17.686;2023-07-30T09:08:58;22.10;99.90
23188;DHT22;11762;59.878;17.686;2023-07-30T09:11:26;22.20;99.90
23188;DHT22;11762;59.878;17.686;2023-07-30T09:13:54;22.20;99.90
23188;DHT22;11762;59.878;17.686;2023-07-30T09:16:24;22.40;99.90
23188;DHT22;11762;59.878;17.686;2023-07-30T09:18:52;22.60;99.90
23188;DHT22;11762;59.878;17.686;2023-07-30T09:21:29;22.80;99.90
23188;DHT22;11762;59.878;17.686;2023-07-30T09:23:56;23.00;99.90
23188;DHT22;11762;59.878;17.686;2023-07-30T09:26:24;23.10;99.90
23188;DHT22;11762;59.878;17.686;2023-07-30T09:28:51;23.20;99.90
23188;DHT22;11762;59.878;17.686;2023-07-30T09:31:18;23.20;99.90
23188;DHT22;11762;59.878;17.686;2023-07-30T09:33:45;23.10;99.90
23188;DHT22;11762;59.878;17.686;2023-07-30T09:36:12;23.10;99.90
23188;DHT22;11762;59.878;17.686;2023-07-30T09:38:41;23.20;99.90
23188;DHT22;11762;59.878;17.686;2023-07-30T09:41:11;23.30;99.90
23188;DHT22;11762;59.878;17.686;2023-07-30T09:43:40;23.50;99.90
23188;DHT22;11762;59.878;17.686;2023-07-30T09:46:07;23.50;99.90
23188;DHT22;11762;59.878;17.686;2023-07-30T09:48:34;23.50;99.90
23188;DHT22;11762;59.878;17.686;2023-07-30T09:51:03;23.50;99.90
23188;DHT22;11762;59.878;17.686;2023-07-30T09:53:31;23.50;99.90
23188;DHT22;11762;59.878;17.686;2023-07-30T09:56:01;23.60;99.90
23188;DHT22;11762;59.878;17.686;2023-07-30T09:58:28;23.60;99.90
23188;DHT22;11762;59.878;17.686;2023-07-30T10:00:58;23.70;99.90
23188;DHT22;11762;59.878;17.686;2023-07-30T10:03:26;23.90;99.90
23188;DHT22;11762;59.878;17.686;2023-07-30T10:05:57;23.80;99.90
23188;DHT22;11762;59.878;17.686;2023-07-30T10:08:27;23.50;99.90
23188;DHT22;11762;59.878;17.686;2023-07-30T10:10:56;23.40;99.90
23188;DHT22;11762;59.878;17.686;2023-07-30T10:13:26;23.30;99.90
23188;DHT22;11762;59.878;17.686;2023-07-30T10:15:55;23.40;99.90
23188;DHT22;11762;59.878;17.686;2023-07-30T10:18:32;23.20;99.90
23188;DHT22;11762;59.878;17.686;2023-07-30T10:21:00;23.10;99.90
23188;DHT22;11762;59.878;17.686;2023-07-30T10:23:28;22.90;99.90
23188;DHT22;11762;59.878;17.686;2023-07-30T10:25:59;22.80;99.90
23188;DHT22;11762;59.878;17.686;2023-07-30T10:28:36;22.90;99.90
23188;DHT22;11762;59.878;17.686;2023-07-30T10:31:05;23.10;99.90
23188;DHT22;11762;59.878;17.686;2023-07-30T10:33:53;23.50;99.90
23188;DHT22;11762;59.878;17.686;2023-07-30T10:36:31;23.50;99.90
23188;DHT22;11762;59.878;17.686;2023-07-30T10:39:10;23.60;99.90
23188;DHT22;11762;59.878;17.686;2023-07-30T10:41:37;23.60;99.90
23188;DHT22;11762;59.878;17.686;2023-07-30T10:44:06;23.90;99.90
23188;DHT22;11762;59.878;17.686;2023-07-30T10:46:33;24.00;99.90
23188;DHT22;11762;59.878;17.686;2023-07-30T10:49:00;23.90;99.90
23188;DHT22;11762;59.878;17.686;2023-07-30T10:51:27;23.80;99.90
23188;DHT22;11762;59.878;17.686;2023-07-30T10:53:54;23.70;99.90
23188;DHT22;11762;59.878;17.686;2023-07-30T10:56:22;23.70;99.90
23188;DHT22;11762;59.878;17.686;2023-07-30T10:58:51;23.60;99.90
23188;DHT22;11762;59.878;17.686;2023-07-30T11:01:20;23.50;99.90
23188;DHT22;11762;59.878;17.686;2023-07-30T11:03:48;23.40;99.90
23188;DHT22;11762;59.878;17.686;2023-07-30T11:06:21;23.10;99.90
23188;DHT22;11762;59.878;17.686;2023-07-30T11:08:48;22.90;99.90
23188;DHT22;11762;59.878;17.686;2023-07-30T11:11:15;22.60;99.90
23188;DHT22;11762;59.878;17.686;2023-07-30T11:13:44;22.30;99.90
23188;DHT22;11762;59.878;17.686;2023-07-30T11:16:12;22.50;99.90
23188;DHT22;11762;59.878;17.686;2023-07-30T11:18:42;22.80;99.90
23188;DHT22;11762;59.878;17.686;2023-07-30T11:21:11;23.00;99.90
23188;DHT22;11762;59.878;17.686;2023-07-30T11:23:39;23.20;99.90
23188;DHT22;11762;59.878;17.686;2023-07-30T11:26:08;23.20;99.90
23188;DHT22;11762;59.878;17.686;2023-07-30T11:28:36;23.20;99.90
23188;DHT22;11762;59.878;17.686;2023-07-30T11:31:05;23.20;99.90
23188;DHT22;11762;59.878;17.686;2023-07-30T11:33:34;23.10;99.90
23188;DHT22;11762;59.878;17.686;2023-07-30T11:36:03;22.90;99.90
23188;DHT22;11762;59.878;17.686;2023-07-30T11:38:31;22.80;99.90
23188;DHT22;11762;59.878;17.686;2023-07-30T11:40:59;22.50;99.90
23188;DHT22;11762;59.878;17.686;2023-07-30T11:43:26;22.30;99.90
23188;DHT22;11762;59.878;17.686;2023-07-30T11:46:12;22.00;99.90
23188;DHT22;11762;59.878;17.686;2023-07-30T11:48:40;21.70;99.90
23188;DHT22;11762;59.878;17.686;2023-07-30T11:51:20;21.50;99.90
23188;DHT22;11762;59.878;17.686;2023-07-30T11:53:49;20.80;99.90
23188;DHT22;11762;59.878;17.686;2023-07-30T11:56:21;20.50;99.90
23188;DHT22;11762;59.878;17.686;2023-07-30T11:58:50;20.20;99.90
23188;DHT22;11762;59.878;17.686;2023-07-30T12:01:18;20.00;99.90
23188;DHT22;11762;59.878;17.686;2023-07-30T12:03:45;19.80;99.90
23188;DHT22;11762;59.878;17.686;2023-07-30T12:06:13;19.50;99.90
23188;DHT22;11762;59.878;17.686;2023-07-30T12:08:41;19.30;99.90
23188;DHT22;11762;59.878;17.686;2023-07-30T12:11:09;19.00;99.90
23188;DHT22;11762;59.878;17.686;2023-07-30T12:13:43;18.70;99.90
23188;DHT22;11762;59.878;17.686;2023-07-30T12:16:12;18.60;99.90
23188;DHT22;11762;59.878;17.686;2023-07-30T12:18:40;18.40;99.90
23188;DHT22;11762;59.878;17.686;2023-07-30T12:21:07;18.20;99.90
23188;DHT22;11762;59.878;17.686;2023-07-30T12:23:37;17.90;99.90
23188;DHT22;11762;59.878;17.686;2023-07-30T12:26:05;17.80;99.90
23188;DHT22;11762;59.878;17.686;2023-07-30T12:28:33;17.60;99.90
23188;DHT22;11762;59.878;17.686;2023-07-30T12:31:00;17.50;99.90
23188;DHT22;11762;59.878;17.686;2023-07-30T12:33:27;17.40;99.90
23188;DHT22;11762;59.878;17.686;2023-07-30T12:35:54;17.30;99.90
23188;DHT22;11762;59.878;17.686;2023-07-30T12:38:21;17.10;99.90
23188;DHT22;11762;59.878;17.686;2023-07-30T12:40:50;17.00;99.90
23188;DHT22;11762;59.878;17.686;2023-07-30T12:43:18;16.90;99.90
23188;DHT22;11762;59.878;17.686;2023-07-30T12:45:47;16.70;99.90
23188;DHT22;11762;59.878;17.686;2023-07-30T12:48:14;16.50;99.90
23188;DHT22;11762;59.878;17.686;2023-07-30T12:50:41;16.50;99.90
23188;DHT22;11762;59.878;17.686;2023-07-30T12:53:08;16.50;99.90
23188;DHT22;11762;59.878;17.686;2023-07-30T12:55:35;16.50;99.90
23188;DHT22;11762;59.878;17.686;2023-07-30T12:58:03;16.50;99.90
23188;DHT22;11762;59.878;17.686;2023-07-30T13:00:33;16.60;99.90
23188;DHT22;11762;59.878;17.686;2023-07-30T13:03:00;16.60;99.90
23188;DHT22;11762;59.878;17.686;2023-07-30T13:05:28;16.50;99.90
23188;DHT22;11762;59.878;17.686;2023-07-30T13:07:55;16.50;99.90
23188;DHT22;11762;59.878;17.686;2023-07-30T13:10:22;16.50;99.90
23188;DHT22;11762;59.878;17.686;2023-07-30T13:12:49;16.40;99.90
23188;DHT22;11762;59.878;17.686;2023-07-30T13:15:16;16.50;99.90
23188;DHT22;11762;59.878;17.686;2023-07-30T13:17:44;16.50;99.90
23188;DHT22;11762;59.878;17.686;2023-07-30T13:20:11;16.50;99.90
23188;DHT22;11762;59.878;17.686;2023-07-30T13:22:38;16.50;99.90
23188;DHT22;11762;59.878;17.686;2023-07-30T13:25:06;16.50;99.90
23188;DHT22;11762;59.878;17.686;2023-07-30T13:27:33;16.50;99.90
23188;DHT22;11762;59.878;17.686;2023-07-30T13:30:00;16.50;99.90
23188;DHT22;11762;59.878;17.686;2023-07-30T13:32:27;16.60;99.90
23188;DHT22;11762;59.878;17.686;2023-07-30T13:34:56;16.50;99.90
23188;DHT22;11762;59.878;17.686;2023-07-30T13:37:23;16.50;99.90
23188;DHT22;11762;59.878;17.686;2023-07-30T13:39:50;16.50;99.90
23188;DHT22;11762;59.878;17.686;2023-07-30T13:42:17;16.50;99.90
23188;DHT22;11762;59.878;17.686;2023-07-30T13:44:44;16.50;99.90
23188;DHT22;11762;59.878;17.686;2023-07-30T13:47:11;16.50;99.90
23188;DHT22;11762;59.878;17.686;2023-07-30T13:49:38;16.50;99.90
23188;DHT22;11762;59.878;17.686;2023-07-30T13:52:07;16.50;99.90
23188;DHT22;11762;59.878;17.686;2023-07-30T13:54:34;16.60;99.90
23188;DHT22;11762;59.878;17.686;2023-07-30T13:57:03;16.60;99.90
23188;DHT22;11762;59.878;17.686;2023-07-30T13:59:30;16.60;99.90
23188;DHT22;11762;59.878;17.686;2023-07-30T14:01:57;16.70;99.90
23188;DHT22;11762;59.878;17.686;2023-07-30T14:04:24;16.70;99.90
23188;DHT22;11762;59.878;17.686;2023-07-30T14:06:51;16.70;99.90
23188;DHT22;11762;59.878;17.686;2023-07-30T14:09:20;16.70;99.90
23188;DHT22;11762;59.878;17.686;2023-07-30T14:11:47;16.80;99.90
23188;DHT22;11762;59.878;17.686;2023-07-30T14:14:14;16.80;99.90
23188;DHT22;11762;59.878;17.686;2023-07-30T14:16:41;16.80;99.90
23188;DHT22;11762;59.878;17.686;2023-07-30T14:19:08;16.80;99.90
23188;DHT22;11762;59.878;17.686;2023-07-30T14:21:35;16.90;99.90
23188;DHT22;11762;59.878;17.686;2023-07-30T14:24:03;16.90;99.90
23188;DHT22;11762;59.878;17.686;2023-07-30T14:26:31;17.00;99.90
23188;DHT22;11762;59.878;17.686;2023-07-30T14:28:58;17.00;99.90
23188;DHT22;11762;59.878;17.686;2023-07-30T14:31:25;17.00;99.90
23188;DHT22;11762;59.878;17.686;2023-07-30T14:33:52;17.10;99.90
23188;DHT22;11762;59.878;17.686;2023-07-30T14:36:19;17.20;99.90
23188;DHT22;11762;59.878;17.686;2023-07-30T14:38:46;17.30;99.90
23188;DHT22;11762;59.878;17.686;2023-07-30T14:41:13;17.40;99.90
23188;DHT22;11762;59.878;17.686;2023-07-30T14:43:42;17.60;99.90
23188;DHT22;11762;59.878;17.686;2023-07-30T14:46:09;17.60;99.90
23188;DHT22;11762;59.878;17.686;2023-07-30T14:48:39;17.80;99.90
23188;DHT22;11762;59.878;17.686;2023-07-30T14:51:06;18.00;99.90
23188;DHT22;11762;59.878;17.686;2023-07-30T14:53:33;18.30;99.90
23188;DHT22;11762;59.878;17.686;2023-07-30T14:56:01;18.10;99.90
23188;DHT22;11762;59.878;17.686;2023-07-30T14:58:28;18.10;99.90
23188;DHT22;11762;59.878;17.686;2023-07-30T15:00:56;18.10;99.90
23188;DHT22;11762;59.878;17.686;2023-07-30T15:03:23;18.00;99.90
23188;DHT22;11762;59.878;17.686;2023-07-30T15:05:50;18.00;99.90
23188;DHT22;11762;59.878;17.686;2023-07-30T15:08:17;18.00;99.90
23188;DHT22;11762;59.878;17.686;2023-07-30T15:10:44;18.10;99.90
23188;DHT22;11762;59.878;17.686;2023-07-30T15:13:11;18.20;99.90
23188;DHT22;11762;59.878;17.686;2023-07-30T15:15:38;18.20;99.90
23188;DHT22;11762;59.878;17.686;2023-07-30T15:18:07;18.30;99.90